sensor_id;sensor_type;location;lat;lon;timestamp;temperature;humidity
13462;DHT22;6803;45.264;5.468;2023-04-23T00:02:10;11.10;99.90
13462;DHT22;6803;45.264;5.468;2023-04-23T00:04:45;11.00;99.90
13462;DHT22;6803;45.264;5.468;2023-04-23T00:07:16;10.90;99.90
13462;DHT22;6803;45.264;5.468;2023-04-23T00:09:49;11.00;99.90
13462;DHT22;6803;45.264;5.468;2023-04-23T00:12:23;11.00;99.90
13462;DHT22;6803;45.264;5.468;2023-04-23T00:14:55;11.00;99.90
13462;DHT22;6803;45.264;5.468;2023-04-23T00:17:26;10.90;99.90
13462;DHT22;6803;45.264;5.468;2023-04-23T00:19:57;11.00;99.90
13462;DHT22;6803;45.264;5.468;2023-04-23T00:22:29;10.90;99.90
13462;DHT22;6803;45.264;5.468;2023-04-23T00:25:00;10.90;99.90
13462;DHT22;6803;45.264;5.468;2023-04-23T00:27:31;11.00;99.90
13462;DHT22;6803;45.264;5.468;2023-04-23T00:30:03;11.00;99.90
13462;DHT22;6803;45.264;5.468;2023-04-23T00:32:34;11.00;99.90
13462;DHT22;6803;45.264;5.468;2023-04-23T00:35:07;11.10;99.90
13462;DHT22;6803;45.264;5.468;2023-04-23T00:37:38;11.10;99.90
13462;DHT22;6803;45.264;5.468;2023-04-23T00:40:10;11.10;99.90
13462;DHT22;6803;45.264;5.468;2023-04-23T00:42:42;11.00;99.90
13462;DHT22;6803;45.264;5.468;2023-04-23T00:45:13;11.00;99.90
13462;DHT22;6803;45.264;5.468;2023-04-23T00:47:46;11.00;99.90
13462;DHT22;6803;45.264;5.468;2023-04-23T00:50:18;10.90;99.90
13462;DHT22;6803;45.264;5.468;2023-04-23T00:52:49;10.90;99.90
13462;DHT22;6803;45.264;5.468;2023-04-23T00:55:21;10.90;99.90
13462;DHT22;6803;45.264;5.468;2023-04-23T00:57:52;10.90;99.90
13462;DHT22;6803;45.264;5.468;2023-04-23T01:00:23;10.90;99.90
13462;DHT22;6803;45.264;5.468;2023-04-23T01:02:54;10.80;99.90
13462;DHT22;6803;45.264;5.468;2023-04-23T01:05:28;10.80;99.90
13462;DHT22;6803;45.264;5.468;2023-04-23T01:07:59;10.80;99.90
13462;DHT22;6803;45.264;5.468;2023-04-23T01:10:31;10.80;99.90
13462;DHT22;6803;45.264;5.468;2023-04-23T01:13:02;10.80;99.90
13462;DHT22;6803;45.264;5.468;2023-04-23T01:15:34;10.80;99.90
13462;DHT22;6803;45.264;5.468;2023-04-23T01:18:05;10.80;99.90
13462;DHT22;6803;45.264;5.468;2023-04-23T01:20:37;10.80;99.90
13462;DHT22;6803;45.264;5.468;2023-04-23T01:23:08;10.70;99.90
13462;DHT22;6803;45.264;5.468;2023-04-23T01:25:39;10.80;99.90
13462;DHT22;6803;45.264;5.468;2023-04-23T01:28:10;10.70;99.90
13462;DHT22;6803;45.264;5.468;2023-04-23T01:30:42;10.80;99.90
13462;DHT22;6803;45.264;5.468;2023-04-23T01:33:14;10.80;99.90
13462;DHT22;6803;45.264;5.468;2023-04-23T01:35:45;10.70;99.90
13462;DHT22;6803;45.264;5.468;2023-04-23T01:38:18;10.80;99.90
13462;DHT22;6803;45.264;5.468;2023-04-23T01:40:50;10.80;99.90
13462;DHT22;6803;45.264;5.468;2023-04-23T01:43:21;10.80;99.90
13462;DHT22;6803;45.264;5.468;2023-04-23T01:45:53;10.80;99.90
13462;DHT22;6803;45.264;5.468;2023-04-23T01:48:24;10.70;99.90
13462;DHT22;6803;45.264;5.468;2023-04-23T01:50:56;10.70;99.90
13462;DHT22;6803;45.264;5.468;2023-04-23T01:53:27;10.70;99.90
13462;DHT22;6803;45.264;5.468;2023-04-23T01:55:58;10.80;99.90
13462;DHT22;6803;45.264;5.468;2023-04-23T01:58:30;10.80;99.90
13462;DHT22;6803;45.264;5.468;2023-04-23T02:01:01;10.70;99.90
13462;DHT22;6803;45.264;5.468;2023-04-23T02:03:33;10.70;99.90
13462;DHT22;6803;45.264;5.468;2023-04-23T02:06:05;10.70;99.90
13462;DHT22;6803;45.264;5.468;2023-04-23T02:08:36;10.70;99.90
13462;DHT22;6803;45.264;5.468;2023-04-23T02:11:07;10.70;99.90
13462;DHT22;6803;45.264;5.468;2023-04-23T02:13:38;10.60;99.90
13462;DHT22;6803;45.264;5.468;2023-04-23T02:16:10;10.70;99.90
13462;DHT22;6803;45.264;5.468;2023-04-23T02:18:41;10.70;99.90
13462;DHT22;6803;45.264;5.468;2023-04-23T02:21:12;10.70;99.90
13462;DHT22;6803;45.264;5.468;2023-04-23T02:23:43;10.70;99.90
13462;DHT22;6803;45.264;5.468;2023-04-23T02:26:14;10.70;99.90
13462;DHT22;6803;45.264;5.468;2023-04-23T02:28:45;10.70;99.90
13462;DHT22;6803;45.264;5.468;2023-04-23T02:31:16;10.70;99.90
13462;DHT22;6803;45.264;5.468;2023-04-23T02:34:07;10.70;99.90
13462;DHT22;6803;45.264;5.468;2023-04-23T02:36:39;10.70;99.90
13462;DHT22;6803;45.264;5.468;2023-04-23T02:39:10;10.70;99.90
13462;DHT22;6803;45.264;5.468;2023-04-23T02:41:41;10.70;99.90
13462;DHT22;6803;45.264;5.468;2023-04-23T02:44:13;10.60;99.90
13462;DHT22;6803;45.264;5.468;2023-04-23T02:46:44;10.60;99.90
13462;DHT22;6803;45.264;5.468;2023-04-23T02:49:15;10.50;99.90
13462;DHT22;6803;45.264;5.468;2023-04-23T02:51:46;10.50;99.90
13462;DHT22;6803;45.264;5.468;2023-04-23T02:54:17;10.50;99.90
13462;DHT22;6803;45.264;5.468;2023-04-23T02:56:48;10.50;99.90
13462;DHT22;6803;45.264;5.468;2023-04-23T02:59:19;10.50;99.90
13462;DHT22;6803;45.264;5.468;2023-04-23T03:01:50;10.50;99.90
13462;DHT22;6803;45.264;5.468;2023-04-23T03:04:21;10.40;99.90
13462;DHT22;6803;45.264;5.468;2023-04-23T03:06:52;10.40;99.90
13462;DHT22;6803;45.264;5.468;2023-04-23T03:09:24;10.40;99.90
13462;DHT22;6803;45.264;5.468;2023-04-23T03:11:55;10.30;99.90
13462;DHT22;6803;45.264;5.468;2023-04-23T03:14:26;10.30;99.90
13462;DHT22;6803;45.264;5.468;2023-04-23T03:16:57;10.30;99.90
13462;DHT22;6803;45.264;5.468;2023-04-23T03:19:28;10.30;99.90
13462;DHT22;6803;45.264;5.468;2023-04-23T03:21:59;10.20;99.90
13462;DHT22;6803;45.264;5.468;2023-04-23T03:24:32;10.20;99.90
13462;DHT22;6803;45.264;5.468;2023-04-23T03:27:03;10.20;99.90
13462;DHT22;6803;45.264;5.468;2023-04-23T03:29:34;10.20;99.90
13462;DHT22;6803;45.264;5.468;2023-04-23T03:32:06;10.20;99.90
13462;DHT22;6803;45.264;5.468;2023-04-23T03:34:37;10.00;99.90
13462;DHT22;6803;45.264;5.468;2023-04-23T03:37:08;10.00;99.90
13462;DHT22;6803;45.264;5.468;2023-04-23T03:39:39;9.80;99.90
13462;DHT22;6803;45.264;5.468;2023-04-23T03:42:11;9.80;99.90
13462;DHT22;6803;45.264;5.468;2023-04-23T03:44:42;9.80;99.90
13462;DHT22;6803;45.264;5.468;2023-04-23T03:47:13;9.60;99.90
13462;DHT22;6803;45.264;5.468;2023-04-23T03:49:45;9.60;99.90
13462;DHT22;6803;45.264;5.468;2023-04-23T03:52:16;9.70;99.90
13462;DHT22;6803;45.264;5.468;2023-04-23T03:54:47;9.70;99.90
13462;DHT22;6803;45.264;5.468;2023-04-23T03:57:19;9.70;99.90
13462;DHT22;6803;45.264;5.468;2023-04-23T03:59:50;9.60;99.90
13462;DHT22;6803;45.264;5.468;2023-04-23T04:02:21;9.70;99.90
13462;DHT22;6803;45.264;5.468;2023-04-23T04:04:52;9.50;99.90
13462;DHT22;6803;45.264;5.468;2023-04-23T04:07:25;9.30;99.90
13462;DHT22;6803;45.264;5.468;2023-04-23T04:09:57;9.20;99.90
13462;DHT22;6803;45.264;5.468;2023-04-23T04:12:28;9.10;99.90
13462;DHT22;6803;45.264;5.468;2023-04-23T04:14:59;9.00;99.90
13462;DHT22;6803;45.264;5.468;2023-04-23T04:17:31;9.00;99.90
13462;DHT22;6803;45.264;5.468;2023-04-23T04:20:03;9.00;99.90
13462;DHT22;6803;45.264;5.468;2023-04-23T04:22:35;9.00;99.90
13462;DHT22;6803;45.264;5.468;2023-04-23T04:25:08;9.00;99.90
13462;DHT22;6803;45.264;5.468;2023-04-23T04:27:39;8.90;99.90
13462;DHT22;6803;45.264;5.468;2023-04-23T04:30:12;9.00;99.90
13462;DHT22;6803;45.264;5.468;2023-04-23T04:32:43;9.10;99.90
13462;DHT22;6803;45.264;5.468;2023-04-23T04:35:15;9.10;99.90
13462;DHT22;6803;45.264;5.468;2023-04-23T04:40:22;9.30;99.90
13462;DHT22;6803;45.264;5.468;2023-04-23T04:42:57;9.30;99.90
13462;DHT22;6803;45.264;5.468;2023-04-23T04:45:28;9.20;99.90
13462;DHT22;6803;45.264;5.468;2023-04-23T04:47:59;9.00;99.90
13462;DHT22;6803;45.264;5.468;2023-04-23T04:50:30;9.00;99.90
13462;DHT22;6803;45.264;5.468;2023-04-23T04:53:01;9.00;99.90
13462;DHT22;6803;45.264;5.468;2023-04-23T04:55:32;9.10;99.90
13462;DHT22;6803;45.264;5.468;2023-04-23T04:58:04;9.10;99.90
13462;DHT22;6803;45.264;5.468;2023-04-23T05:00:35;9.10;99.90
13462;DHT22;6803;45.264;5.468;2023-04-23T05:03:07;9.10;99.90
13462;DHT22;6803;45.264;5.468;2023-04-23T05:05:39;9.00;99.90
13462;DHT22;6803;45.264;5.468;2023-04-23T05:08:10;9.00;99.90
13462;DHT22;6803;45.264;5.468;2023-04-23T05:10:43;9.00;99.90
13462;DHT22;6803;45.264;5.468;2023-04-23T05:13:14;9.20;99.90
13462;DHT22;6803;45.264;5.468;2023-04-23T05:15:45;9.30;99.90
13462;DHT22;6803;45.264;5.468;2023-04-23T05:18:16;9.30;99.90
13462;DHT22;6803;45.264;5.468;2023-04-23T05:20:49;9.40;99.90
13462;DHT22;6803;45.264;5.468;2023-04-23T05:23:20;9.70;99.90
13462;DHT22;6803;45.264;5.468;2023-04-23T05:25:51;9.80;99.90
13462;DHT22;6803;45.264;5.468;2023-04-23T05:28:24;9.80;99.90
13462;DHT22;6803;45.264;5.468;2023-04-23T05:30:55;9.60;99.90
13462;DHT22;6803;45.264;5.468;2023-04-23T05:33:27;9.40;99.90
13462;DHT22;6803;45.264;5.468;2023-04-23T05:35:59;9.50;99.90
13462;DHT22;6803;45.264;5.468;2023-04-23T05:38:30;9.60;99.90
13462;DHT22;6803;45.264;5.468;2023-04-23T05:41:01;9.50;99.90
13462;DHT22;6803;45.264;5.468;2023-04-23T05:43:33;9.50;99.90
13462;DHT22;6803;45.264;5.468;2023-04-23T05:46:04;9.50;99.90
13462;DHT22;6803;45.264;5.468;2023-04-23T05:48:36;9.40;99.90
13462;DHT22;6803;45.264;5.468;2023-04-23T05:51:07;9.40;99.90
13462;DHT22;6803;45.264;5.468;2023-04-23T05:53:39;9.40;99.90
13462;DHT22;6803;45.264;5.468;2023-04-23T05:56:10;9.50;99.90
13462;DHT22;6803;45.264;5.468;2023-04-23T05:58:41;9.50;99.90
13462;DHT22;6803;45.264;5.468;2023-04-23T06:01:12;9.50;99.90
13462;DHT22;6803;45.264;5.468;2023-04-23T06:03:44;9.50;99.90
13462;DHT22;6803;45.264;5.468;2023-04-23T06:06:15;9.60;99.90
13462;DHT22;6803;45.264;5.468;2023-04-23T06:08:46;9.80;99.90
13462;DHT22;6803;45.264;5.468;2023-04-23T06:11:20;9.90;99.90
13462;DHT22;6803;45.264;5.468;2023-04-23T06:13:50;10.00;99.90
13462;DHT22;6803;45.264;5.468;2023-04-23T06:16:21;10.10;99.90
13462;DHT22;6803;45.264;5.468;2023-04-23T06:18:53;10.30;99.90
13462;DHT22;6803;45.264;5.468;2023-04-23T06:21:25;10.50;99.90
13462;DHT22;6803;45.264;5.468;2023-04-23T06:23:56;10.70;99.90
13462;DHT22;6803;45.264;5.468;2023-04-23T06:26:27;10.80;99.90
13462;DHT22;6803;45.264;5.468;2023-04-23T06:28:59;10.90;99.90
13462;DHT22;6803;45.264;5.468;2023-04-23T06:31:30;10.90;99.90
13462;DHT22;6803;45.264;5.468;2023-04-23T06:34:01;11.20;99.90
13462;DHT22;6803;45.264;5.468;2023-04-23T06:36:32;11.50;99.90
13462;DHT22;6803;45.264;5.468;2023-04-23T06:39:04;11.60;99.90
13462;DHT22;6803;45.264;5.468;2023-04-23T06:41:37;11.70;99.90
13462;DHT22;6803;45.264;5.468;2023-04-23T06:44:11;11.60;99.90
13462;DHT22;6803;45.264;5.468;2023-04-23T06:46:42;11.50;99.90
13462;DHT22;6803;45.264;5.468;2023-04-23T06:49:13;11.60;99.90
13462;DHT22;6803;45.264;5.468;2023-04-23T06:51:45;11.90;99.90
13462;DHT22;6803;45.264;5.468;2023-04-23T06:54:16;12.00;99.90
13462;DHT22;6803;45.264;5.468;2023-04-23T06:56:47;12.00;99.90
13462;DHT22;6803;45.264;5.468;2023-04-23T06:59:19;11.90;99.90
13462;DHT22;6803;45.264;5.468;2023-04-23T07:01:50;11.90;99.90
13462;DHT22;6803;45.264;5.468;2023-04-23T07:04:20;12.00;99.90
13462;DHT22;6803;45.264;5.468;2023-04-23T07:06:54;12.00;99.90
13462;DHT22;6803;45.264;5.468;2023-04-23T07:09:30;12.10;99.90
13462;DHT22;6803;45.264;5.468;2023-04-23T07:12:02;12.20;99.90
13462;DHT22;6803;45.264;5.468;2023-04-23T07:14:39;12.30;99.90
13462;DHT22;6803;45.264;5.468;2023-04-23T07:17:19;12.40;99.90
13462;DHT22;6803;45.264;5.468;2023-04-23T07:20:18;12.60;99.90
13462;DHT22;6803;45.264;5.468;2023-04-23T07:22:55;12.60;99.90
13462;DHT22;6803;45.264;5.468;2023-04-23T07:25:30;12.70;99.90
13462;DHT22;6803;45.264;5.468;2023-04-23T07:28:03;12.80;99.90
13462;DHT22;6803;45.264;5.468;2023-04-23T07:30:35;12.90;99.90
13462;DHT22;6803;45.264;5.468;2023-04-23T07:33:06;12.80;99.90
13462;DHT22;6803;45.264;5.468;2023-04-23T07:35:37;12.90;99.90
13462;DHT22;6803;45.264;5.468;2023-04-23T07:38:08;13.30;99.90
13462;DHT22;6803;45.264;5.468;2023-04-23T07:40:39;13.50;99.90
13462;DHT22;6803;45.264;5.468;2023-04-23T07:43:11;13.40;99.90
13462;DHT22;6803;45.264;5.468;2023-04-23T07:45:43;13.40;99.90
13462;DHT22;6803;45.264;5.468;2023-04-23T07:48:15;13.20;99.90
13462;DHT22;6803;45.264;5.468;2023-04-23T07:50:45;13.40;99.90
13462;DHT22;6803;45.264;5.468;2023-04-23T07:53:16;13.60;99.90
13462;DHT22;6803;45.264;5.468;2023-04-23T07:55:47;13.90;99.90
13462;DHT22;6803;45.264;5.468;2023-04-23T07:58:18;13.90;99.90
13462;DHT22;6803;45.264;5.468;2023-04-23T08:00:50;14.10;99.90
13462;DHT22;6803;45.264;5.468;2023-04-23T08:03:21;14.10;99.90
13462;DHT22;6803;45.264;5.468;2023-04-23T08:05:53;14.30;99.90
13462;DHT22;6803;45.264;5.468;2023-04-23T08:08:25;14.20;99.90
13462;DHT22;6803;45.264;5.468;2023-04-23T08:10:56;14.30;99.90
13462;DHT22;6803;45.264;5.468;2023-04-23T08:13:27;14.30;99.90
13462;DHT22;6803;45.264;5.468;2023-04-23T08:15:58;14.30;99.90
13462;DHT22;6803;45.264;5.468;2023-04-23T08:18:29;14.40;99.90
13462;DHT22;6803;45.264;5.468;2023-04-23T08:21:03;14.50;99.90
13462;DHT22;6803;45.264;5.468;2023-04-23T08:23:34;14.70;99.90
13462;DHT22;6803;45.264;5.468;2023-04-23T08:26:05;14.50;99.90
13462;DHT22;6803;45.264;5.468;2023-04-23T08:28:36;14.40;99.90
13462;DHT22;6803;45.264;5.468;2023-04-23T08:31:07;14.10;99.90
13462;DHT22;6803;45.264;5.468;2023-04-23T08:33:39;14.10;99.90
13462;DHT22;6803;45.264;5.468;2023-04-23T08:36:10;14.30;99.90
13462;DHT22;6803;45.264;5.468;2023-04-23T08:38:41;14.60;99.90
13462;DHT22;6803;45.264;5.468;2023-04-23T08:41:14;14.60;99.90
13462;DHT22;6803;45.264;5.468;2023-04-23T08:43:51;14.90;99.90
13462;DHT22;6803;45.264;5.468;2023-04-23T08:46:23;15.00;99.90
13462;DHT22;6803;45.264;5.468;2023-04-23T08:48:55;15.30;99.90
13462;DHT22;6803;45.264;5.468;2023-04-23T08:51:29;15.70;99.90
13462;DHT22;6803;45.264;5.468;2023-04-23T08:54:03;15.60;99.90
13462;DHT22;6803;45.264;5.468;2023-04-23T08:56:35;16.00;99.90
13462;DHT22;6803;45.264;5.468;2023-04-23T08:59:07;16.30;99.90
13462;DHT22;6803;45.264;5.468;2023-04-23T09:01:38;16.30;99.90
13462;DHT22;6803;45.264;5.468;2023-04-23T09:04:10;16.30;99.90
13462;DHT22;6803;45.264;5.468;2023-04-23T09:06:42;16.70;99.90
13462;DHT22;6803;45.264;5.468;2023-04-23T09:09:15;16.70;99.90
13462;DHT22;6803;45.264;5.468;2023-04-23T09:11:46;17.00;99.90
13462;DHT22;6803;45.264;5.468;2023-04-23T09:14:17;17.30;99.90
13462;DHT22;6803;45.264;5.468;2023-04-23T09:16:50;17.20;99.90
13462;DHT22;6803;45.264;5.468;2023-04-23T09:19:22;17.10;99.90
13462;DHT22;6803;45.264;5.468;2023-04-23T09:21:56;17.30;99.90
13462;DHT22;6803;45.264;5.468;2023-04-23T09:24:29;17.30;99.90
13462;DHT22;6803;45.264;5.468;2023-04-23T09:27:00;17.20;99.90
13462;DHT22;6803;45.264;5.468;2023-04-23T09:29:32;17.10;99.90
13462;DHT22;6803;45.264;5.468;2023-04-23T09:32:07;17.00;99.90
13462;DHT22;6803;45.264;5.468;2023-04-23T09:34:38;17.00;99.90
13462;DHT22;6803;45.264;5.468;2023-04-23T09:37:09;17.10;99.90
13462;DHT22;6803;45.264;5.468;2023-04-23T09:39:41;17.00;99.90
13462;DHT22;6803;45.264;5.468;2023-04-23T09:42:13;16.90;99.90
13462;DHT22;6803;45.264;5.468;2023-04-23T09:44:44;16.70;99.90
13462;DHT22;6803;45.264;5.468;2023-04-23T09:47:16;16.70;99.90
13462;DHT22;6803;45.264;5.468;2023-04-23T09:49:48;16.70;99.90
13462;DHT22;6803;45.264;5.468;2023-04-23T09:52:20;16.50;99.90
13462;DHT22;6803;45.264;5.468;2023-04-23T09:54:51;16.50;99.90
13462;DHT22;6803;45.264;5.468;2023-04-23T10:00:12;16.60;99.90
13462;DHT22;6803;45.264;5.468;2023-04-23T10:02:47;16.70;99.90
13462;DHT22;6803;45.264;5.468;2023-04-23T10:05:20;16.80;99.90
13462;DHT22;6803;45.264;5.468;2023-04-23T10:07:53;17.10;99.90
13462;DHT22;6803;45.264;5.468;2023-04-23T10:10:25;17.00;99.90
13462;DHT22;6803;45.264;5.468;2023-04-23T10:12:57;17.20;99.90
13462;DHT22;6803;45.264;5.468;2023-04-23T10:15:29;17.00;99.90
13462;DHT22;6803;45.264;5.468;2023-04-23T10:17:59;17.10;99.90
13462;DHT22;6803;45.264;5.468;2023-04-23T10:20:33;17.30;99.90
13462;DHT22;6803;45.264;5.468;2023-04-23T10:23:07;17.20;99.90
13462;DHT22;6803;45.264;5.468;2023-04-23T10:25:39;17.30;99.90
13462;DHT22;6803;45.264;5.468;2023-04-23T10:28:11;17.40;99.90
13462;DHT22;6803;45.264;5.468;2023-04-23T10:30:44;17.30;99.90
13462;DHT22;6803;45.264;5.468;2023-04-23T10:33:15;17.30;99.90
13462;DHT22;6803;45.264;5.468;2023-04-23T10:35:49;17.20;99.90
13462;DHT22;6803;45.264;5.468;2023-04-23T10:38:21;17.20;99.90
13462;DHT22;6803;45.264;5.468;2023-04-23T10:40:54;17.50;99.90
13462;DHT22;6803;45.264;5.468;2023-04-23T10:43:25;17.60;99.90
13462;DHT22;6803;45.264;5.468;2023-04-23T10:45:56;17.90;99.90
13462;DHT22;6803;45.264;5.468;2023-04-23T10:48:28;17.90;99.90
13462;DHT22;6803;45.264;5.468;2023-04-23T10:50:59;18.00;99.90
13462;DHT22;6803;45.264;5.468;2023-04-23T10:53:32;18.20;99.90
13462;DHT22;6803;45.264;5.468;2023-04-23T10:56:09;18.40;99.90
13462;DHT22;6803;45.264;5.468;2023-04-23T10:58:49;18.70;99.90
13462;DHT22;6803;45.264;5.468;2023-04-23T11:01:23;18.70;99.90
13462;DHT22;6803;45.264;5.468;2023-04-23T11:03:56;19.20;99.90
13462;DHT22;6803;45.264;5.468;2023-04-23T11:12:32;20.10;99.90
13462;DHT22;6803;45.264;5.468;2023-04-23T11:15:11;19.60;99.90
13462;DHT22;6803;45.264;5.468;2023-04-23T11:18:01;19.50;99.90
13462;DHT22;6803;45.264;5.468;2023-04-23T11:20:34;19.40;99.90
13462;DHT22;6803;45.264;5.468;2023-04-23T11:23:06;19.20;99.90
13462;DHT22;6803;45.264;5.468;2023-04-23T11:25:38;19.30;99.90
13462;DHT22;6803;45.264;5.468;2023-04-23T11:28:10;19.20;99.90
13462;DHT22;6803;45.264;5.468;2023-04-23T11:30:41;19.10;99.90
13462;DHT22;6803;45.264;5.468;2023-04-23T11:33:12;18.90;99.90
13462;DHT22;6803;45.264;5.468;2023-04-23T11:35:44;18.90;99.90
13462;DHT22;6803;45.264;5.468;2023-04-23T11:38:15;18.80;99.90
13462;DHT22;6803;45.264;5.468;2023-04-23T11:40:51;18.90;99.90
13462;DHT22;6803;45.264;5.468;2023-04-23T11:43:22;18.90;99.90
13462;DHT22;6803;45.264;5.468;2023-04-23T11:45:55;18.90;99.90
13462;DHT22;6803;45.264;5.468;2023-04-23T11:48:27;19.00;99.90
13462;DHT22;6803;45.264;5.468;2023-04-23T11:50:58;19.10;99.90
13462;DHT22;6803;45.264;5.468;2023-04-23T11:53:29;19.10;99.90
13462;DHT22;6803;45.264;5.468;2023-04-23T11:56:01;19.10;99.90
13462;DHT22;6803;45.264;5.468;2023-04-23T11:58:34;19.00;99.90
13462;DHT22;6803;45.264;5.468;2023-04-23T12:01:09;19.10;99.90
13462;DHT22;6803;45.264;5.468;2023-04-23T12:03:41;19.30;99.90
13462;DHT22;6803;45.264;5.468;2023-04-23T12:06:16;19.50;99.90
13462;DHT22;6803;45.264;5.468;2023-04-23T12:08:47;20.00;99.90
13462;DHT22;6803;45.264;5.468;2023-04-23T12:11:19;20.40;99.90
13462;DHT22;6803;45.264;5.468;2023-04-23T12:13:52;20.40;99.90
13462;DHT22;6803;45.264;5.468;2023-04-23T12:16:35;20.30;99.90
13462;DHT22;6803;45.264;5.468;2023-04-23T12:19:09;20.10;99.90
13462;DHT22;6803;45.264;5.468;2023-04-23T12:21:51;20.00;99.90
13462;DHT22;6803;45.264;5.468;2023-04-23T12:24:24;19.90;99.90
13462;DHT22;6803;45.264;5.468;2023-04-23T12:26:57;19.70;99.90
13462;DHT22;6803;45.264;5.468;2023-04-23T12:29:30;19.70;99.90
13462;DHT22;6803;45.264;5.468;2023-04-23T12:32:02;19.40;99.90
13462;DHT22;6803;45.264;5.468;2023-04-23T12:34:33;19.30;99.90
13462;DHT22;6803;45.264;5.468;2023-04-23T12:37:07;19.20;99.90
13462;DHT22;6803;45.264;5.468;2023-04-23T12:39:38;19.00;99.90
13462;DHT22;6803;45.264;5.468;2023-04-23T12:42:09;19.00;99.90
13462;DHT22;6803;45.264;5.468;2023-04-23T12:44:41;19.00;99.90
13462;DHT22;6803;45.264;5.468;2023-04-23T12:47:12;18.90;99.90
13462;DHT22;6803;45.264;5.468;2023-04-23T12:49:43;18.90;99.90
13462;DHT22;6803;45.264;5.468;2023-04-23T12:52:15;18.80;99.90
13462;DHT22;6803;45.264;5.468;2023-04-23T12:54:46;18.70;99.90
13462;DHT22;6803;45.264;5.468;2023-04-23T12:57:19;19.30;99.90
13462;DHT22;6803;45.264;5.468;2023-04-23T12:59:51;19.60;99.90
13462;DHT22;6803;45.264;5.468;2023-04-23T13:02:24;19.50;99.90
13462;DHT22;6803;45.264;5.468;2023-04-23T13:04:55;19.30;99.90
13462;DHT22;6803;45.264;5.468;2023-04-23T13:07:27;19.20;99.90
13462;DHT22;6803;45.264;5.468;2023-04-23T13:09:58;19.00;99.90
13462;DHT22;6803;45.264;5.468;2023-04-23T13:12:29;19.00;99.90
13462;DHT22;6803;45.264;5.468;2023-04-23T13:15:01;18.60;99.90
13462;DHT22;6803;45.264;5.468;2023-04-23T13:17:33;18.50;99.90
13462;DHT22;6803;45.264;5.468;2023-04-23T13:20:06;18.30;99.90
13462;DHT22;6803;45.264;5.468;2023-04-23T13:22:38;18.20;99.90
13462;DHT22;6803;45.264;5.468;2023-04-23T13:25:09;18.10;99.90
13462;DHT22;6803;45.264;5.468;2023-04-23T13:27:40;18.10;99.90
13462;DHT22;6803;45.264;5.468;2023-04-23T13:30:13;18.20;99.90
13462;DHT22;6803;45.264;5.468;2023-04-23T13:32:44;18.40;99.90
13462;DHT22;6803;45.264;5.468;2023-04-23T13:35:14;18.60;99.90
13462;DHT22;6803;45.264;5.468;2023-04-23T13:37:46;18.70;99.90
13462;DHT22;6803;45.264;5.468;2023-04-23T13:40:17;18.70;99.90
13462;DHT22;6803;45.264;5.468;2023-04-23T13:42:48;18.70;99.90
13462;DHT22;6803;45.264;5.468;2023-04-23T13:45:19;18.70;99.90
13462;DHT22;6803;45.264;5.468;2023-04-23T13:47:51;18.70;99.90
13462;DHT22;6803;45.264;5.468;2023-04-23T13:50:22;18.90;99.90
13462;DHT22;6803;45.264;5.468;2023-04-23T13:52:52;18.90;99.90
13462;DHT22;6803;45.264;5.468;2023-04-23T13:55:23;18.80;99.90
13462;DHT22;6803;45.264;5.468;2023-04-23T13:57:54;18.80;99.90
13462;DHT22;6803;45.264;5.468;2023-04-23T14:00:28;18.80;99.90
13462;DHT22;6803;45.264;5.468;2023-04-23T14:02:59;18.90;99.90
13462;DHT22;6803;45.264;5.468;2023-04-23T14:05:30;18.80;99.90
13462;DHT22;6803;45.264;5.468;2023-04-23T14:08:01;18.60;99.90
13462;DHT22;6803;45.264;5.468;2023-04-23T14:10:32;18.50;99.90
13462;DHT22;6803;45.264;5.468;2023-04-23T14:13:03;18.30;99.90
13462;DHT22;6803;45.264;5.468;2023-04-23T14:15:35;18.20;99.90
13462;DHT22;6803;45.264;5.468;2023-04-23T14:18:06;18.10;99.90
13462;DHT22;6803;45.264;5.468;2023-04-23T14:20:37;18.10;99.90
13462;DHT22;6803;45.264;5.468;2023-04-23T14:26:02;17.70;99.90
13462;DHT22;6803;45.264;5.468;2023-04-23T14:28:33;17.60;99.90
13462;DHT22;6803;45.264;5.468;2023-04-23T14:31:05;17.50;99.90
13462;DHT22;6803;45.264;5.468;2023-04-23T14:33:36;17.50;99.90
13462;DHT22;6803;45.264;5.468;2023-04-23T14:36:07;17.30;99.90
13462;DHT22;6803;45.264;5.468;2023-04-23T14:38:38;17.00;99.90
13462;DHT22;6803;45.264;5.468;2023-04-23T14:41:09;16.90;99.90
13462;DHT22;6803;45.264;5.468;2023-04-23T14:43:40;16.70;99.90
13462;DHT22;6803;45.264;5.468;2023-04-23T14:46:11;16.70;99.90
13462;DHT22;6803;45.264;5.468;2023-04-23T14:48:42;16.60;99.90
13462;DHT22;6803;45.264;5.468;2023-04-23T14:51:12;16.60;99.90
13462;DHT22;6803;45.264;5.468;2023-04-23T14:53:43;16.40;99.90
13462;DHT22;6803;45.264;5.468;2023-04-23T14:56:14;16.10;99.90
13462;DHT22;6803;45.264;5.468;2023-04-23T14:58:45;15.30;99.90
13462;DHT22;6803;45.264;5.468;2023-04-23T15:01:17;14.50;99.90
13462;DHT22;6803;45.264;5.468;2023-04-23T15:03:48;14.10;99.90
13462;DHT22;6803;45.264;5.468;2023-04-23T15:06:19;13.80;99.90
13462;DHT22;6803;45.264;5.468;2023-04-23T15:08:50;13.60;99.90
13462;DHT22;6803;45.264;5.468;2023-04-23T15:11:21;13.40;99.90
13462;DHT22;6803;45.264;5.468;2023-04-23T15:14:00;13.30;99.90
13462;DHT22;6803;45.264;5.468;2023-04-23T15:16:30;13.30;99.90
13462;DHT22;6803;45.264;5.468;2023-04-23T15:19:04;13.30;99.90
13462;DHT22;6803;45.264;5.468;2023-04-23T15:21:36;13.20;99.90
13462;DHT22;6803;45.264;5.468;2023-04-23T15:24:07;13.00;99.90
13462;DHT22;6803;45.264;5.468;2023-04-23T15:26:38;12.90;99.90
13462;DHT22;6803;45.264;5.468;2023-04-23T15:29:09;13.00;99.90
13462;DHT22;6803;45.264;5.468;2023-04-23T15:31:42;12.90;99.90
13462;DHT22;6803;45.264;5.468;2023-04-23T15:34:13;12.80;99.90
13462;DHT22;6803;45.264;5.468;2023-04-23T15:36:44;12.80;99.90
13462;DHT22;6803;45.264;5.468;2023-04-23T15:39:14;12.40;99.90
13462;DHT22;6803;45.264;5.468;2023-04-23T15:44:25;12.40;99.90
13462;DHT22;6803;45.264;5.468;2023-04-23T15:46:56;12.50;99.90
13462;DHT22;6803;45.264;5.468;2023-04-23T15:49:29;12.50;99.90
13462;DHT22;6803;45.264;5.468;2023-04-23T15:52:01;12.30;99.90
13462;DHT22;6803;45.264;5.468;2023-04-23T15:54:32;12.30;99.90
13462;DHT22;6803;45.264;5.468;2023-04-23T15:57:03;12.20;99.90
13462;DHT22;6803;45.264;5.468;2023-04-23T15:59:34;12.30;99.90
13462;DHT22;6803;45.264;5.468;2023-04-23T16:02:05;12.20;99.90
13462;DHT22;6803;45.264;5.468;2023-04-23T16:04:37;12.10;99.90
13462;DHT22;6803;45.264;5.468;2023-04-23T16:07:08;12.10;99.90
13462;DHT22;6803;45.264;5.468;2023-04-23T16:09:39;12.10;99.90
13462;DHT22;6803;45.264;5.468;2023-04-23T16:12:10;12.10;99.90
13462;DHT22;6803;45.264;5.468;2023-04-23T16:14:42;12.00;99.90
13462;DHT22;6803;45.264;5.468;2023-04-23T16:17:12;11.90;99.90
13462;DHT22;6803;45.264;5.468;2023-04-23T16:19:43;12.00;99.90
13462;DHT22;6803;45.264;5.468;2023-04-23T16:22:15;11.90;99.90
13462;DHT22;6803;45.264;5.468;2023-04-23T16:24:45;11.80;99.90
13462;DHT22;6803;45.264;5.468;2023-04-23T16:27:16;11.80;99.90
13462;DHT22;6803;45.264;5.468;2023-04-23T16:29:47;11.80;99.90
13462;DHT22;6803;45.264;5.468;2023-04-23T16:32:19;11.90;99.90
13462;DHT22;6803;45.264;5.468;2023-04-23T16:34:50;11.80;99.90